Pineville, MO (64856)

2:48 AM CDT on March 29, 2017 (GMT -0500)
Brush Creek | | Change Station
Active Advisory: Special Weather Statement

Elev 1056 ft 36.51 °N, 94.34 °W | Updated 26 seconds ago

Overcast
Overcast
61.7 °F
Feels Like 61.7 °F
N
2.9
Wind Variable Wind from SSE
Gusts 4.9 mph

Today
High -- | Low -- °F
--% Chance of Precip.
Yesterday
High -- | Low -- °F
Precip. -- in
Pressure 29.82 in
Visibility 10.0 miles
Clouds Scattered Clouds 3100 ft
Mostly Cloudy 4000 ft
Dew Point 58 °F
Humidity 86%
Rainfall 0.00 in
Snow Depth Not available.
7:07 AM 7:37 PM
New Moon, 2% visible
METAR KVBT 290735Z AUTO 14013G21KT 10SM SCT031 BKN040 17/13 A2982 RMK AO1 LTG DSNT N
Pressure 29.82 in
Visibility 10.0 miles
Clouds Scattered Clouds 3100 ft
Mostly Cloudy 4000 ft
Dew Point 58 °F
Humidity 86%
Rainfall 0.00 in
Snow Depth Not available.
7:07 AM 7:37 PM
New Moon, 2% visible
METAR KVBT 290735Z AUTO 14013G21KT 10SM SCT031 BKN040 17/13 A2982 RMK AO1 LTG DSNT N

Get Your Daily Forecast Email!

Thanks for signing up!

Be on the lookout for a verification email in your inbox.

You'll start receiving severe weather alerts in your inbox..

×

10-Day Weather Forecast

Almanac

Astronomy

Mar. 29, 2017 Rise Set
Actual Time
Civil Twilight
Nautical Twilight
Astronomical Twilight
Moon
Length of Visible Light
Length of Day
Tomorrow will be .
, % of the Moon is Illuminated

Today's Extremes

State Highs State Lows

Community

WunderPhotos

Upload Photos

1,962,540 photos uploaded!

WunderBlog® & News

Nearby

Air Quality

  Air Quality AQ Index Pollutant
Not available.

Snow Depth

Station Depth Elevation

Earthquake Activity

City Distance Mag. Time & Date
Minimum magnitude displayed is 2.5.

Earthquake Activity

City Distance Mag. Time & Date
Minimum magnitude displayed is 2.5.

Coastal Water Temperatures

Place Temperature

Stations

Nearby Weather Stations

Station Location Temp. Windchill Dew Point Humidity Wind Precip. Elev Updated Type
                   

Watches & Warnings

Special Weather Statement
Issued: 1:59 AM CDT Mar. 29, 2017 – National Weather Service

... Significant weather advisory for western Newton and western
McDonald counties until 245 am CDT...

At 158 am CDT, Doppler radar was tracking a strong thunderstorm near
Jay, moving north at 50 mph.

Nickel size hail and wind gusts up to 50 mph will be possible with
this storm.

Locations impacted include...
Neosho... Seneca...
Granby... Anderson...
Noel... Dodge...
Goodman... South West City...
Diamond... Loma Linda...
Lanagan... Cayuga...
Tiff City... Racine...

Lat... Lon 3691 9462 3700 9461 3700 9424 3650 9448
      3650 9462
time... Mot... loc 0658z 190deg 49kt 3647 9471


Griffin